sensor_id;sensor_type;location;lat;lon;timestamp;temperature;humidity
20977;DHT22;10647;51.016;3.720;2022-12-18T00:01:36;-2.30;99.90
20977;DHT22;10647;51.016;3.720;2022-12-18T00:04:05;-2.30;99.90
20977;DHT22;10647;51.016;3.720;2022-12-18T00:06:35;-2.10;99.90
20977;DHT22;10647;51.016;3.720;2022-12-18T00:09:05;-2.40;99.90
20977;DHT22;10647;51.016;3.720;2022-12-18T00:11:39;-2.40;99.90
20977;DHT22;10647;51.016;3.720;2022-12-18T00:14:06;-2.40;99.90
20977;DHT22;10647;51.016;3.720;2022-12-18T00:16:35;-2.50;99.90
20977;DHT22;10647;51.016;3.720;2022-12-18T00:19:03;-2.50;99.90
20977;DHT22;10647;51.016;3.720;2022-12-18T00:21:33;-2.50;99.90
20977;DHT22;10647;51.016;3.720;2022-12-18T00:24:00;-2.50;99.90
20977;DHT22;10647;51.016;3.720;2022-12-18T00:26:30;-2.60;99.90
20977;DHT22;10647;51.016;3.720;2022-12-18T00:29:00;-2.60;99.90
20977;DHT22;10647;51.016;3.720;2022-12-18T00:31:28;-2.60;99.90
20977;DHT22;10647;51.016;3.720;2022-12-18T00:33:56;-2.60;99.90
20977;DHT22;10647;51.016;3.720;2022-12-18T00:36:32;-2.60;99.90
20977;DHT22;10647;51.016;3.720;2022-12-18T00:41:50;-2.60;99.90
20977;DHT22;10647;51.016;3.720;2022-12-18T00:44:28;-2.60;99.90
20977;DHT22;10647;51.016;3.720;2022-12-18T00:46:56;-2.60;99.90
20977;DHT22;10647;51.016;3.720;2022-12-18T00:49:25;-2.70;99.90
20977;DHT22;10647;51.016;3.720;2022-12-18T00:51:52;-2.60;99.90
20977;DHT22;10647;51.016;3.720;2022-12-18T00:54:26;-2.70;99.90
20977;DHT22;10647;51.016;3.720;2022-12-18T00:56:57;-2.70;99.90
20977;DHT22;10647;51.016;3.720;2022-12-18T00:59:24;-2.70;99.90
20977;DHT22;10647;51.016;3.720;2022-12-18T01:01:52;-2.70;99.90
20977;DHT22;10647;51.016;3.720;2022-12-18T01:04:25;-2.80;99.90
20977;DHT22;10647;51.016;3.720;2022-12-18T01:06:56;-2.80;99.90
20977;DHT22;10647;51.016;3.720;2022-12-18T01:09:42;-2.80;99.90
20977;DHT22;10647;51.016;3.720;2022-12-18T01:12:29;-2.80;99.90
20977;DHT22;10647;51.016;3.720;2022-12-18T01:14:57;-2.90;99.90
20977;DHT22;10647;51.016;3.720;2022-12-18T01:17:25;-2.90;99.90
20977;DHT22;10647;51.016;3.720;2022-12-18T01:19:52;-2.90;99.90
20977;DHT22;10647;51.016;3.720;2022-12-18T01:22:20;-2.90;99.90
20977;DHT22;10647;51.016;3.720;2022-12-18T01:24:47;-2.90;99.90
20977;DHT22;10647;51.016;3.720;2022-12-18T01:27:15;-2.90;99.90
20977;DHT22;10647;51.016;3.720;2022-12-18T01:29:43;-2.90;99.90
20977;DHT22;10647;51.016;3.720;2022-12-18T01:32:11;-3.00;99.90
20977;DHT22;10647;51.016;3.720;2022-12-18T01:34:38;-3.00;99.90
20977;DHT22;10647;51.016;3.720;2022-12-18T01:37:25;-3.00;99.90
20977;DHT22;10647;51.016;3.720;2022-12-18T01:39:53;-3.00;99.90
20977;DHT22;10647;51.016;3.720;2022-12-18T01:42:21;-3.00;99.90
20977;DHT22;10647;51.016;3.720;2022-12-18T01:48:06;-3.10;99.90
20977;DHT22;10647;51.016;3.720;2022-12-18T01:53:26;-3.10;99.90
20977;DHT22;10647;51.016;3.720;2022-12-18T01:55:56;-3.10;99.90
20977;DHT22;10647;51.016;3.720;2022-12-18T01:58:37;-3.10;99.90
20977;DHT22;10647;51.016;3.720;2022-12-18T02:01:04;-3.10;99.90
20977;DHT22;10647;51.016;3.720;2022-12-18T02:03:32;-3.20;99.90
20977;DHT22;10647;51.016;3.720;2022-12-18T02:06:09;-3.20;99.90
20977;DHT22;10647;51.016;3.720;2022-12-18T02:09:03;-3.20;99.90
20977;DHT22;10647;51.016;3.720;2022-12-18T02:15:00;-3.20;99.90
20977;DHT22;10647;51.016;3.720;2022-12-18T02:17:40;-3.20;99.90
20977;DHT22;10647;51.016;3.720;2022-12-18T02:20:12;-3.30;99.90
20977;DHT22;10647;51.016;3.720;2022-12-18T02:28:34;-3.50;99.90
20977;DHT22;10647;51.016;3.720;2022-12-18T02:33:52;-3.50;99.90
20977;DHT22;10647;51.016;3.720;2022-12-18T02:36:24;-3.50;99.90
20977;DHT22;10647;51.016;3.720;2022-12-18T02:41:48;-3.40;99.90
20977;DHT22;10647;51.016;3.720;2022-12-18T02:44:17;-3.40;99.90
20977;DHT22;10647;51.016;3.720;2022-12-18T02:46:50;-3.40;99.90
20977;DHT22;10647;51.016;3.720;2022-12-18T02:57:58;-3.50;99.90
20977;DHT22;10647;51.016;3.720;2022-12-18T03:00:36;-3.60;99.90
20977;DHT22;10647;51.016;3.720;2022-12-18T03:03:16;-3.60;99.90
20977;DHT22;10647;51.016;3.720;2022-12-18T03:08:44;-3.60;99.90
20977;DHT22;10647;51.016;3.720;2022-12-18T03:11:13;-3.60;99.90
20977;DHT22;10647;51.016;3.720;2022-12-18T03:13:47;-3.60;99.90
20977;DHT22;10647;51.016;3.720;2022-12-18T03:19:06;-3.60;99.90
20977;DHT22;10647;51.016;3.720;2022-12-18T03:21:40;-3.70;99.90
20977;DHT22;10647;51.016;3.720;2022-12-18T03:24:11;-3.70;99.90
20977;DHT22;10647;51.016;3.720;2022-12-18T03:26:42;-3.70;99.90
20977;DHT22;10647;51.016;3.720;2022-12-18T03:29:19;-3.70;99.90
20977;DHT22;10647;51.016;3.720;2022-12-18T03:32:04;-3.70;99.90
20977;DHT22;10647;51.016;3.720;2022-12-18T03:34:49;-3.70;99.90
20977;DHT22;10647;51.016;3.720;2022-12-18T03:37:18;-3.70;99.90
20977;DHT22;10647;51.016;3.720;2022-12-18T03:39:45;-3.70;99.90
20977;DHT22;10647;51.016;3.720;2022-12-18T03:50:56;-3.60;99.90
20977;DHT22;10647;51.016;3.720;2022-12-18T03:53:43;-3.60;99.90
20977;DHT22;10647;51.016;3.720;2022-12-18T03:56:12;-3.60;99.90
20977;DHT22;10647;51.016;3.720;2022-12-18T03:58:42;-3.70;99.90
20977;DHT22;10647;51.016;3.720;2022-12-18T04:04:00;-3.70;99.90
20977;DHT22;10647;51.016;3.720;2022-12-18T04:12:08;-3.70;99.90
20977;DHT22;10647;51.016;3.720;2022-12-18T04:14:36;-3.70;99.90
20977;DHT22;10647;51.016;3.720;2022-12-18T04:17:03;-3.70;99.90
20977;DHT22;10647;51.016;3.720;2022-12-18T04:19:31;-3.70;99.90
20977;DHT22;10647;51.016;3.720;2022-12-18T04:21:58;-3.70;99.90
20977;DHT22;10647;51.016;3.720;2022-12-18T04:24:26;-3.70;99.90
20977;DHT22;10647;51.016;3.720;2022-12-18T04:26:54;-3.60;99.90
20977;DHT22;10647;51.016;3.720;2022-12-18T04:29:25;-3.60;99.90
20977;DHT22;10647;51.016;3.720;2022-12-18T04:31:58;-3.60;99.90
20977;DHT22;10647;51.016;3.720;2022-12-18T04:34:25;-3.60;99.90
20977;DHT22;10647;51.016;3.720;2022-12-18T04:36:53;-3.60;99.90
20977;DHT22;10647;51.016;3.720;2022-12-18T04:39:20;-3.60;99.90
20977;DHT22;10647;51.016;3.720;2022-12-18T04:41:48;-3.60;99.90
20977;DHT22;10647;51.016;3.720;2022-12-18T04:44:16;-3.60;99.90
20977;DHT22;10647;51.016;3.720;2022-12-18T04:46:44;-3.50;99.90
20977;DHT22;10647;51.016;3.720;2022-12-18T04:49:11;-3.50;99.90
20977;DHT22;10647;51.016;3.720;2022-12-18T04:51:39;-3.50;99.90
20977;DHT22;10647;51.016;3.720;2022-12-18T04:54:07;-3.50;99.90
20977;DHT22;10647;51.016;3.720;2022-12-18T04:56:34;-3.50;99.90
20977;DHT22;10647;51.016;3.720;2022-12-18T04:59:03;-3.50;99.90
20977;DHT22;10647;51.016;3.720;2022-12-18T05:01:32;-3.50;99.90
20977;DHT22;10647;51.016;3.720;2022-12-18T05:04:00;-3.50;99.90
20977;DHT22;10647;51.016;3.720;2022-12-18T05:06:27;-3.50;99.90
20977;DHT22;10647;51.016;3.720;2022-12-18T05:08:58;-3.50;99.90
20977;DHT22;10647;51.016;3.720;2022-12-18T05:11:25;-3.50;99.90
20977;DHT22;10647;51.016;3.720;2022-12-18T05:13:53;-3.50;99.90
20977;DHT22;10647;51.016;3.720;2022-12-18T05:16:21;-3.50;99.90
20977;DHT22;10647;51.016;3.720;2022-12-18T05:18:49;-3.40;99.90
20977;DHT22;10647;51.016;3.720;2022-12-18T05:21:16;-3.50;99.90
20977;DHT22;10647;51.016;3.720;2022-12-18T05:23:44;-3.50;99.90
20977;DHT22;10647;51.016;3.720;2022-12-18T05:26:16;-3.50;99.90
20977;DHT22;10647;51.016;3.720;2022-12-18T05:28:45;-3.50;99.90
20977;DHT22;10647;51.016;3.720;2022-12-18T05:31:13;-3.50;99.90
20977;DHT22;10647;51.016;3.720;2022-12-18T05:33:41;-3.50;99.90
20977;DHT22;10647;51.016;3.720;2022-12-18T05:36:10;-3.50;99.90
20977;DHT22;10647;51.016;3.720;2022-12-18T05:38:39;-3.50;99.90
20977;DHT22;10647;51.016;3.720;2022-12-18T05:41:07;-3.50;99.90
20977;DHT22;10647;51.016;3.720;2022-12-18T05:43:37;-3.50;99.90
20977;DHT22;10647;51.016;3.720;2022-12-18T05:49:00;-3.50;99.90
20977;DHT22;10647;51.016;3.720;2022-12-18T05:51:28;-3.50;99.90
20977;DHT22;10647;51.016;3.720;2022-12-18T05:53:57;-3.60;99.90
20977;DHT22;10647;51.016;3.720;2022-12-18T05:56:28;-3.50;99.90
20977;DHT22;10647;51.016;3.720;2022-12-18T05:58:56;-3.50;99.90
20977;DHT22;10647;51.016;3.720;2022-12-18T06:01:26;-3.50;99.90
20977;DHT22;10647;51.016;3.720;2022-12-18T06:03:54;-3.50;99.90
20977;DHT22;10647;51.016;3.720;2022-12-18T06:06:24;-3.50;99.90
20977;DHT22;10647;51.016;3.720;2022-12-18T06:08:54;-3.50;99.90
20977;DHT22;10647;51.016;3.720;2022-12-18T06:11:26;-3.50;99.90
20977;DHT22;10647;51.016;3.720;2022-12-18T06:14:00;-3.50;99.90
20977;DHT22;10647;51.016;3.720;2022-12-18T06:16:28;-3.50;99.90
20977;DHT22;10647;51.016;3.720;2022-12-18T06:21:48;-3.50;99.90
20977;DHT22;10647;51.016;3.720;2022-12-18T06:24:16;-3.50;99.90
20977;DHT22;10647;51.016;3.720;2022-12-18T06:26:44;-3.50;99.90
20977;DHT22;10647;51.016;3.720;2022-12-18T06:29:11;-3.50;99.90
20977;DHT22;10647;51.016;3.720;2022-12-18T06:31:39;-3.50;99.90
20977;DHT22;10647;51.016;3.720;2022-12-18T06:34:06;-3.50;99.90
20977;DHT22;10647;51.016;3.720;2022-12-18T06:36:35;-3.40;99.90
20977;DHT22;10647;51.016;3.720;2022-12-18T06:39:05;-3.40;99.90
20977;DHT22;10647;51.016;3.720;2022-12-18T06:41:32;-3.40;99.90
20977;DHT22;10647;51.016;3.720;2022-12-18T06:44:00;-3.40;99.90
20977;DHT22;10647;51.016;3.720;2022-12-18T06:46:30;-3.40;99.90
20977;DHT22;10647;51.016;3.720;2022-12-18T06:48:58;-3.30;99.90
20977;DHT22;10647;51.016;3.720;2022-12-18T06:51:26;-3.30;99.90
20977;DHT22;10647;51.016;3.720;2022-12-18T06:53:53;-3.30;99.90
20977;DHT22;10647;51.016;3.720;2022-12-18T06:56:21;-3.30;99.90
20977;DHT22;10647;51.016;3.720;2022-12-18T06:58:51;-3.30;99.90
20977;DHT22;10647;51.016;3.720;2022-12-18T07:01:18;-3.30;99.90
20977;DHT22;10647;51.016;3.720;2022-12-18T07:03:53;-3.30;99.90
20977;DHT22;10647;51.016;3.720;2022-12-18T07:06:23;-3.30;99.90
20977;DHT22;10647;51.016;3.720;2022-12-18T07:08:52;-3.30;99.90
20977;DHT22;10647;51.016;3.720;2022-12-18T07:11:20;-3.30;99.90
20977;DHT22;10647;51.016;3.720;2022-12-18T07:13:48;-3.40;99.90
20977;DHT22;10647;51.016;3.720;2022-12-18T07:16:21;-3.40;99.90
20977;DHT22;10647;51.016;3.720;2022-12-18T07:18:48;-3.40;99.90
20977;DHT22;10647;51.016;3.720;2022-12-18T07:21:18;-3.40;99.90
20977;DHT22;10647;51.016;3.720;2022-12-18T07:23:46;-3.40;99.90
20977;DHT22;10647;51.016;3.720;2022-12-18T07:26:33;-3.40;99.90
20977;DHT22;10647;51.016;3.720;2022-12-18T07:29:01;-3.40;99.90
20977;DHT22;10647;51.016;3.720;2022-12-18T07:31:28;-3.40;99.90
20977;DHT22;10647;51.016;3.720;2022-12-18T07:33:59;-3.30;99.90
20977;DHT22;10647;51.016;3.720;2022-12-18T07:36:45;-3.30;99.90
20977;DHT22;10647;51.016;3.720;2022-12-18T07:39:14;-3.30;99.90
20977;DHT22;10647;51.016;3.720;2022-12-18T07:41:42;-3.30;99.90
20977;DHT22;10647;51.016;3.720;2022-12-18T07:44:13;-3.30;99.90
20977;DHT22;10647;51.016;3.720;2022-12-18T07:46:40;-3.30;99.90
20977;DHT22;10647;51.016;3.720;2022-12-18T07:49:08;-3.30;99.90
20977;DHT22;10647;51.016;3.720;2022-12-18T07:51:35;-3.30;99.90
20977;DHT22;10647;51.016;3.720;2022-12-18T07:54:03;-3.30;99.90
20977;DHT22;10647;51.016;3.720;2022-12-18T07:56:34;-3.30;99.90
20977;DHT22;10647;51.016;3.720;2022-12-18T07:59:01;-3.30;99.90
20977;DHT22;10647;51.016;3.720;2022-12-18T08:01:30;-3.20;99.90
20977;DHT22;10647;51.016;3.720;2022-12-18T08:04:00;-3.20;99.90
20977;DHT22;10647;51.016;3.720;2022-12-18T08:06:27;-3.20;99.90
20977;DHT22;10647;51.016;3.720;2022-12-18T08:08:56;-3.10;99.90
20977;DHT22;10647;51.016;3.720;2022-12-18T08:11:25;-3.00;99.90
20977;DHT22;10647;51.016;3.720;2022-12-18T08:13:53;-2.90;99.90
20977;DHT22;10647;51.016;3.720;2022-12-18T08:16:21;-2.90;99.90
20977;DHT22;10647;51.016;3.720;2022-12-18T08:18:51;-2.80;99.90
20977;DHT22;10647;51.016;3.720;2022-12-18T08:21:37;-2.70;99.90
20977;DHT22;10647;51.016;3.720;2022-12-18T08:24:24;-2.60;99.90
20977;DHT22;10647;51.016;3.720;2022-12-18T08:26:52;-2.40;99.90
20977;DHT22;10647;51.016;3.720;2022-12-18T08:29:20;-2.20;99.90
20977;DHT22;10647;51.016;3.720;2022-12-18T08:31:48;-2.10;99.90
20977;DHT22;10647;51.016;3.720;2022-12-18T08:34:16;-1.90;99.90
20977;DHT22;10647;51.016;3.720;2022-12-18T08:36:43;-1.80;99.90
20977;DHT22;10647;51.016;3.720;2022-12-18T08:39:11;-1.70;99.90
20977;DHT22;10647;51.016;3.720;2022-12-18T08:41:40;-1.50;99.90
20977;DHT22;10647;51.016;3.720;2022-12-18T08:44:10;-1.40;99.90
20977;DHT22;10647;51.016;3.720;2022-12-18T08:46:56;-1.30;99.90
20977;DHT22;10647;51.016;3.720;2022-12-18T08:49:27;-1.20;99.90
20977;DHT22;10647;51.016;3.720;2022-12-18T08:51:56;-1.10;99.90
20977;DHT22;10647;51.016;3.720;2022-12-18T08:54:24;-1.10;99.90
20977;DHT22;10647;51.016;3.720;2022-12-18T08:56:52;-1.00;99.90
20977;DHT22;10647;51.016;3.720;2022-12-18T08:59:20;-1.00;99.90
20977;DHT22;10647;51.016;3.720;2022-12-18T09:01:48;-0.90;99.90
20977;DHT22;10647;51.016;3.720;2022-12-18T09:04:15;-0.80;99.90
20977;DHT22;10647;51.016;3.720;2022-12-18T09:06:43;-0.70;99.90
20977;DHT22;10647;51.016;3.720;2022-12-18T09:09:10;-0.60;99.90
20977;DHT22;10647;51.016;3.720;2022-12-18T09:11:38;-0.50;99.90
20977;DHT22;10647;51.016;3.720;2022-12-18T09:14:07;-0.40;99.90
20977;DHT22;10647;51.016;3.720;2022-12-18T09:16:36;-0.30;99.90
20977;DHT22;10647;51.016;3.720;2022-12-18T09:19:04;-0.30;99.90
20977;DHT22;10647;51.016;3.720;2022-12-18T09:21:35;-0.20;99.90
20977;DHT22;10647;51.016;3.720;2022-12-18T09:24:03;-0.10;99.90
20977;DHT22;10647;51.016;3.720;2022-12-18T09:26:30;0.00;99.90
20977;DHT22;10647;51.016;3.720;2022-12-18T09:29:00;0.00;99.90
20977;DHT22;10647;51.016;3.720;2022-12-18T09:31:27;0.10;99.90
20977;DHT22;10647;51.016;3.720;2022-12-18T09:33:55;0.20;99.90
20977;DHT22;10647;51.016;3.720;2022-12-18T09:36:24;0.20;99.90
20977;DHT22;10647;51.016;3.720;2022-12-18T09:38:52;0.30;99.90
20977;DHT22;10647;51.016;3.720;2022-12-18T09:50:04;0.60;99.90
20977;DHT22;10647;51.016;3.720;2022-12-18T09:52:37;0.60;99.90
20977;DHT22;10647;51.016;3.720;2022-12-18T09:55:11;0.60;99.90
20977;DHT22;10647;51.016;3.720;2022-12-18T09:58:02;0.70;99.90
20977;DHT22;10647;51.016;3.720;2022-12-18T10:00:34;0.70;99.90
20977;DHT22;10647;51.016;3.720;2022-12-18T10:03:08;0.80;99.90
20977;DHT22;10647;51.016;3.720;2022-12-18T10:10:53;1.00;99.90
20977;DHT22;10647;51.016;3.720;2022-12-18T10:30:54;1.40;99.90
20977;DHT22;10647;51.016;3.720;2022-12-18T10:33:24;1.40;99.90
20977;DHT22;10647;51.016;3.720;2022-12-18T10:35:53;1.50;99.90
20977;DHT22;10647;51.016;3.720;2022-12-18T10:38:41;1.60;99.90
20977;DHT22;10647;51.016;3.720;2022-12-18T10:44:20;1.80;99.90
20977;DHT22;10647;51.016;3.720;2022-12-18T10:46:55;1.90;99.90
20977;DHT22;10647;51.016;3.720;2022-12-18T10:49:26;2.00;99.90
20977;DHT22;10647;51.016;3.720;2022-12-18T10:52:15;1.90;99.90
20977;DHT22;10647;51.016;3.720;2022-12-18T10:57:39;2.00;99.90
20977;DHT22;10647;51.016;3.720;2022-12-18T11:00:30;2.10;99.90
20977;DHT22;10647;51.016;3.720;2022-12-18T11:02:55;2.20;99.90
20977;DHT22;10647;51.016;3.720;2022-12-18T11:05:42;2.20;99.90
20977;DHT22;10647;51.016;3.720;2022-12-18T11:08:19;2.30;99.90
20977;DHT22;10647;51.016;3.720;2022-12-18T11:10:40;2.30;99.90
20977;DHT22;10647;51.016;3.720;2022-12-18T11:13:17;2.40;99.90
20977;DHT22;10647;51.016;3.720;2022-12-18T11:15:46;2.50;99.90
20977;DHT22;10647;51.016;3.720;2022-12-18T11:21:11;2.60;99.90
20977;DHT22;10647;51.016;3.720;2022-12-18T11:23:53;2.60;99.90
20977;DHT22;10647;51.016;3.720;2022-12-18T11:26:21;2.60;99.90
20977;DHT22;10647;51.016;3.720;2022-12-18T11:29:07;2.70;99.90
20977;DHT22;10647;51.016;3.720;2022-12-18T11:31:32;2.70;99.90
20977;DHT22;10647;51.016;3.720;2022-12-18T11:36:55;2.80;99.90
20977;DHT22;10647;51.016;3.720;2022-12-18T11:39:32;2.80;99.90
20977;DHT22;10647;51.016;3.720;2022-12-18T11:45:01;2.90;99.90
20977;DHT22;10647;51.016;3.720;2022-12-18T11:47:38;2.90;99.90
20977;DHT22;10647;51.016;3.720;2022-12-18T11:50:12;3.00;99.90
20977;DHT22;10647;51.016;3.720;2022-12-18T11:52:39;3.00;99.90
20977;DHT22;10647;51.016;3.720;2022-12-18T11:55:16;3.10;99.90
20977;DHT22;10647;51.016;3.720;2022-12-18T11:58:03;3.10;99.90
20977;DHT22;10647;51.016;3.720;2022-12-18T12:00:29;3.20;99.90
20977;DHT22;10647;51.016;3.720;2022-12-18T12:06:19;3.40;99.90
20977;DHT22;10647;51.016;3.720;2022-12-18T12:09:04;3.40;99.90
20977;DHT22;10647;51.016;3.720;2022-12-18T12:12:10;3.50;99.90
20977;DHT22;10647;51.016;3.720;2022-12-18T12:17:27;3.50;99.90
20977;DHT22;10647;51.016;3.720;2022-12-18T12:20:22;3.60;99.90
20977;DHT22;10647;51.016;3.720;2022-12-18T12:29:32;3.80;99.90
20977;DHT22;10647;51.016;3.720;2022-12-18T12:32:05;3.90;99.90
20977;DHT22;10647;51.016;3.720;2022-12-18T12:38:06;4.10;99.90
20977;DHT22;10647;51.016;3.720;2022-12-18T12:43:31;4.10;99.90
20977;DHT22;10647;51.016;3.720;2022-12-18T12:46:00;4.10;99.90
20977;DHT22;10647;51.016;3.720;2022-12-18T12:57:09;4.20;99.90
20977;DHT22;10647;51.016;3.720;2022-12-18T12:59:52;4.20;99.90
20977;DHT22;10647;51.016;3.720;2022-12-18T13:02:29;4.30;99.90
20977;DHT22;10647;51.016;3.720;2022-12-18T13:04:59;4.30;99.90
20977;DHT22;10647;51.016;3.720;2022-12-18T13:07:29;4.30;99.90
20977;DHT22;10647;51.016;3.720;2022-12-18T13:16:06;4.00;99.90
20977;DHT22;10647;51.016;3.720;2022-12-18T13:18:55;4.00;99.90
20977;DHT22;10647;51.016;3.720;2022-12-18T13:21:35;4.00;99.90
20977;DHT22;10647;51.016;3.720;2022-12-18T13:24:23;4.00;99.90
20977;DHT22;10647;51.016;3.720;2022-12-18T13:30:00;4.00;99.90
20977;DHT22;10647;51.016;3.720;2022-12-18T13:32:28;3.90;99.90
20977;DHT22;10647;51.016;3.720;2022-12-18T13:47:33;3.90;99.90
20977;DHT22;10647;51.016;3.720;2022-12-18T13:50:45;3.80;99.90
20977;DHT22;10647;51.016;3.720;2022-12-18T13:52:54;3.70;99.90
20977;DHT22;10647;51.016;3.720;2022-12-18T13:55:22;3.70;99.90
20977;DHT22;10647;51.016;3.720;2022-12-18T13:58:02;3.60;99.90
20977;DHT22;10647;51.016;3.720;2022-12-18T14:00:29;3.60;99.90
20977;DHT22;10647;51.016;3.720;2022-12-18T14:02:58;3.60;99.90
20977;DHT22;10647;51.016;3.720;2022-12-18T14:05:30;3.60;99.90
20977;DHT22;10647;51.016;3.720;2022-12-18T14:10:50;3.60;99.90
20977;DHT22;10647;51.016;3.720;2022-12-18T14:15:52;3.60;99.90
20977;DHT22;10647;51.016;3.720;2022-12-18T14:18:48;3.60;99.90
20977;DHT22;10647;51.016;3.720;2022-12-18T14:21:26;3.70;99.90
20977;DHT22;10647;51.016;3.720;2022-12-18T14:24:12;3.70;99.90
20977;DHT22;10647;51.016;3.720;2022-12-18T14:26:40;3.70;99.90
20977;DHT22;10647;51.016;3.720;2022-12-18T14:29:28;3.70;99.90
20977;DHT22;10647;51.016;3.720;2022-12-18T14:32:16;3.60;99.90
20977;DHT22;10647;51.016;3.720;2022-12-18T14:34:49;3.60;99.90
20977;DHT22;10647;51.016;3.720;2022-12-18T14:40:11;3.60;99.90
20977;DHT22;10647;51.016;3.720;2022-12-18T14:42:35;3.60;99.90
20977;DHT22;10647;51.016;3.720;2022-12-18T14:48:07;3.60;99.90
20977;DHT22;10647;51.016;3.720;2022-12-18T14:50:36;3.60;99.90
20977;DHT22;10647;51.016;3.720;2022-12-18T14:53:23;3.50;99.90
20977;DHT22;10647;51.016;3.720;2022-12-18T14:55:52;3.50;99.90
20977;DHT22;10647;51.016;3.720;2022-12-18T14:58:19;3.50;99.90
20977;DHT22;10647;51.016;3.720;2022-12-18T15:00:47;3.50;99.90
20977;DHT22;10647;51.016;3.720;2022-12-18T15:03:20;3.50;99.90
20977;DHT22;10647;51.016;3.720;2022-12-18T15:05:48;3.50;99.90
20977;DHT22;10647;51.016;3.720;2022-12-18T15:08:31;3.40;99.90
20977;DHT22;10647;51.016;3.720;2022-12-18T15:10:58;3.40;99.90
20977;DHT22;10647;51.016;3.720;2022-12-18T15:13:32;3.40;99.90
20977;DHT22;10647;51.016;3.720;2022-12-18T15:16:01;3.40;99.90
20977;DHT22;10647;51.016;3.720;2022-12-18T15:18:34;3.40;99.90
20977;DHT22;10647;51.016;3.720;2022-12-18T15:21:20;3.30;99.90
20977;DHT22;10647;51.016;3.720;2022-12-18T15:23:50;3.40;99.90
20977;DHT22;10647;51.016;3.720;2022-12-18T15:26:20;3.30;99.90
20977;DHT22;10647;51.016;3.720;2022-12-18T15:28:50;3.30;99.90
20977;DHT22;10647;51.016;3.720;2022-12-18T15:31:34;3.30;99.90
20977;DHT22;10647;51.016;3.720;2022-12-18T15:34:14;3.30;99.90
20977;DHT22;10647;51.016;3.720;2022-12-18T15:36:43;3.20;99.90
20977;DHT22;10647;51.016;3.720;2022-12-18T15:39:12;3.20;99.90
20977;DHT22;10647;51.016;3.720;2022-12-18T15:41:40;3.20;99.90
20977;DHT22;10647;51.016;3.720;2022-12-18T15:44:23;3.20;99.90
20977;DHT22;10647;51.016;3.720;2022-12-18T15:46:52;3.20;99.90
20977;DHT22;10647;51.016;3.720;2022-12-18T15:49:19;3.30;99.90
20977;DHT22;10647;51.016;3.720;2022-12-18T15:51:50;3.20;99.90
20977;DHT22;10647;51.016;3.720;2022-12-18T15:54:18;3.30;99.90
20977;DHT22;10647;51.016;3.720;2022-12-18T15:56:48;3.30;99.90
20977;DHT22;10647;51.016;3.720;2022-12-18T15:59:33;3.30;99.90
20977;DHT22;10647;51.016;3.720;2022-12-18T16:02:01;3.40;99.90
20977;DHT22;10647;51.016;3.720;2022-12-18T16:04:28;3.40;99.90
20977;DHT22;10647;51.016;3.720;2022-12-18T16:06:59;3.40;99.90
20977;DHT22;10647;51.016;3.720;2022-12-18T16:09:28;3.40;99.90
20977;DHT22;10647;51.016;3.720;2022-12-18T16:12:00;3.50;99.90
20977;DHT22;10647;51.016;3.720;2022-12-18T16:14:29;3.50;99.90
20977;DHT22;10647;51.016;3.720;2022-12-18T16:19:53;3.60;99.90
20977;DHT22;10647;51.016;3.720;2022-12-18T16:22:24;3.60;99.90
20977;DHT22;10647;51.016;3.720;2022-12-18T16:24:53;3.60;99.90
20977;DHT22;10647;51.016;3.720;2022-12-18T16:27:22;3.60;99.90
20977;DHT22;10647;51.016;3.720;2022-12-18T16:29:50;3.60;99.90
20977;DHT22;10647;51.016;3.720;2022-12-18T16:35:11;3.50;99.90
20977;DHT22;10647;51.016;3.720;2022-12-18T16:40:28;3.60;99.90
20977;DHT22;10647;51.016;3.720;2022-12-18T16:42:57;3.60;99.90
20977;DHT22;10647;51.016;3.720;2022-12-18T16:48:05;3.60;99.90
20977;DHT22;10647;51.016;3.720;2022-12-18T16:50:33;3.70;99.90
20977;DHT22;10647;51.016;3.720;2022-12-18T16:53:20;3.60;99.90
20977;DHT22;10647;51.016;3.720;2022-12-18T16:55:53;3.60;99.90
20977;DHT22;10647;51.016;3.720;2022-12-18T16:58:18;3.60;99.90
20977;DHT22;10647;51.016;3.720;2022-12-18T17:00:52;3.60;99.90
20977;DHT22;10647;51.016;3.720;2022-12-18T17:03:20;3.60;99.90
20977;DHT22;10647;51.016;3.720;2022-12-18T17:05:47;3.50;99.90
20977;DHT22;10647;51.016;3.720;2022-12-18T17:08:15;3.50;99.90
20977;DHT22;10647;51.016;3.720;2022-12-18T17:10:43;3.50;99.90
20977;DHT22;10647;51.016;3.720;2022-12-18T17:13:16;3.50;99.90
20977;DHT22;10647;51.016;3.720;2022-12-18T17:15:43;3.50;99.90
20977;DHT22;10647;51.016;3.720;2022-12-18T17:18:14;3.50;99.90
20977;DHT22;10647;51.016;3.720;2022-12-18T17:20:47;3.50;99.90
20977;DHT22;10647;51.016;3.720;2022-12-18T17:23:15;3.50;99.90
20977;DHT22;10647;51.016;3.720;2022-12-18T17:25:42;3.50;99.90
20977;DHT22;10647;51.016;3.720;2022-12-18T17:28:10;3.50;99.90
20977;DHT22;10647;51.016;3.720;2022-12-18T17:30:37;3.50;99.90
20977;DHT22;10647;51.016;3.720;2022-12-18T17:33:05;3.40;99.90
20977;DHT22;10647;51.016;3.720;2022-12-18T17:35:32;3.40;99.90
20977;DHT22;10647;51.016;3.720;2022-12-18T17:38:00;3.40;99.90
20977;DHT22;10647;51.016;3.720;2022-12-18T17:40:27;3.40;99.90
20977;DHT22;10647;51.016;3.720;2022-12-18T17:43:02;3.40;99.90
20977;DHT22;10647;51.016;3.720;2022-12-18T17:45:49;3.40;99.90
20977;DHT22;10647;51.016;3.720;2022-12-18T17:48:17;3.40;99.90
20977;DHT22;10647;51.016;3.720;2022-12-18T17:50:46;3.30;99.90
20977;DHT22;10647;51.016;3.720;2022-12-18T17:53:15;3.40;99.90
20977;DHT22;10647;51.016;3.720;2022-12-18T17:55:42;3.40;99.90
20977;DHT22;10647;51.016;3.720;2022-12-18T17:58:11;3.40;99.90
20977;DHT22;10647;51.016;3.720;2022-12-18T18:00:38;3.40;99.90
20977;DHT22;10647;51.016;3.720;2022-12-18T18:03:06;3.40;99.90
20977;DHT22;10647;51.016;3.720;2022-12-18T18:05:33;3.40;99.90
20977;DHT22;10647;51.016;3.720;2022-12-18T18:08:01;3.40;99.90
20977;DHT22;10647;51.016;3.720;2022-12-18T18:10:28;3.40;99.90
20977;DHT22;10647;51.016;3.720;2022-12-18T18:12:56;3.40;99.90
20977;DHT22;10647;51.016;3.720;2022-12-18T18:15:41;3.40;99.90
20977;DHT22;10647;51.016;3.720;2022-12-18T18:18:09;3.40;99.90
20977;DHT22;10647;51.016;3.720;2022-12-18T18:20:39;3.40;99.90
20977;DHT22;10647;51.016;3.720;2022-12-18T18:23:26;3.40;99.90
20977;DHT22;10647;51.016;3.720;2022-12-18T18:26:15;3.40;99.90
20977;DHT22;10647;51.016;3.720;2022-12-18T18:28:45;3.40;99.90
20977;DHT22;10647;51.016;3.720;2022-12-18T18:31:13;3.40;99.90
20977;DHT22;10647;51.016;3.720;2022-12-18T18:33:43;3.40;99.90
20977;DHT22;10647;51.016;3.720;2022-12-18T18:36:10;3.40;99.90
20977;DHT22;10647;51.016;3.720;2022-12-18T18:38:39;3.40;99.90
20977;DHT22;10647;51.016;3.720;2022-12-18T18:41:07;3.50;99.90
20977;DHT22;10647;51.016;3.720;2022-12-18T18:43:34;3.50;99.90
20977;DHT22;10647;51.016;3.720;2022-12-18T18:46:03;3.50;99.90
20977;DHT22;10647;51.016;3.720;2022-12-18T18:48:34;3.50;99.90
20977;DHT22;10647;51.016;3.720;2022-12-18T18:51:12;3.50;99.90
20977;DHT22;10647;51.016;3.720;2022-12-18T18:53:44;3.60;99.90
20977;DHT22;10647;51.016;3.720;2022-12-18T18:56:13;3.60;99.90
20977;DHT22;10647;51.016;3.720;2022-12-18T18:59:01;3.60;99.90
20977;DHT22;10647;51.016;3.720;2022-12-18T19:01:28;3.60;99.90
20977;DHT22;10647;51.016;3.720;2022-12-18T19:03:56;3.60;99.90